createdAt,value
2023-04-24T00:00:56.311Z,845.81
2023-04-24T00:01:56.332Z,845.88
2023-04-24T00:02:56.510Z,845.87
2023-04-24T00:03:56.445Z,845.88
2023-04-24T00:04:56.309Z,845.85
2023-04-24T00:05:56.262Z,845.89
2023-04-24T00:06:56.247Z,845.88
2023-04-24T00:07:56.251Z,845.84
2023-04-24T00:08:56.253Z,845.86
2023-04-24T00:09:56.214Z,845.86
2023-04-24T00:10:56.212Z,845.88
2023-04-24T00:11:56.204Z,845.88
2023-04-24T00:12:56.171Z,845.88
2023-04-24T00:13:56.169Z,845.87
2023-04-24T00:14:56.157Z,845.82
2023-04-24T00:15:56.140Z,845.80
2023-04-24T00:16:56.222Z,845.83
2023-04-24T00:17:56.151Z,845.79
2023-04-24T00:18:56.116Z,845.82
2023-04-24T00:19:56.103Z,845.81
2023-04-24T00:20:56.110Z,845.80
2023-04-24T00:21:56.078Z,845.77
2023-04-24T00:22:56.075Z,845.81
2023-04-24T00:23:56.115Z,845.79
2023-04-24T00:24:56.064Z,845.76
2023-04-24T00:25:56.048Z,845.75
2023-04-24T00:26:56.022Z,845.73
2023-04-24T00:27:56.008Z,845.78
2023-04-24T00:28:56.010Z,845.74
2023-04-24T00:29:55.993Z,845.75
2023-04-24T00:30:55.985Z,845.73
2023-04-24T00:31:56.012Z,845.74
2023-04-24T00:32:56.000Z,845.71
2023-04-24T00:33:55.949Z,845.72
2023-04-24T00:34:55.938Z,845.79
2023-04-24T00:35:55.937Z,845.76
2023-04-24T00:36:55.921Z,845.81
2023-04-24T00:37:55.919Z,845.78
2023-04-24T00:38:55.894Z,845.76
2023-04-24T00:39:55.881Z,845.70
2023-04-24T00:40:55.898Z,845.70
2023-04-24T00:41:55.873Z,845.73
2023-04-24T00:42:55.856Z,845.70
2023-04-24T00:43:55.839Z,845.70
2023-04-24T00:44:55.838Z,845.70
2023-04-24T00:45:55.852Z,845.75
2023-04-24T00:46:55.867Z,845.76
2023-04-24T00:47:55.817Z,845.74
2023-04-24T00:48:55.789Z,845.78
2023-04-24T00:49:55.784Z,845.76
2023-04-24T00:50:55.777Z,845.79
2023-04-24T00:51:55.753Z,845.79
2023-04-24T00:52:55.805Z,845.75
2023-04-24T00:53:55.731Z,845.71
2023-04-24T00:54:55.726Z,845.71
2023-04-24T00:55:55.722Z,845.69
2023-04-24T00:56:55.726Z,845.78
2023-04-24T00:57:55.694Z,845.77
2023-04-24T00:58:55.704Z,845.75
2023-04-24T00:59:55.689Z,845.78
2023-04-24T01:00:55.681Z,845.84
2023-04-24T01:01:55.644Z,845.85
2023-04-24T01:02:55.810Z,845.87
2023-04-24T01:03:55.911Z,845.83
2023-04-24T01:04:55.632Z,845.87
2023-04-24T01:05:55.612Z,845.90
2023-04-24T01:06:55.663Z,845.85
2023-04-24T01:07:55.592Z,845.88
2023-04-24T01:08:55.572Z,845.88
2023-04-24T01:09:55.594Z,845.88
2023-04-24T01:10:55.568Z,845.87
2023-04-24T01:11:55.554Z,845.92
2023-04-24T01:12:55.571Z,845.89
2023-04-24T01:13:55.525Z,845.87
2023-04-24T01:14:55.512Z,845.85
2023-04-24T01:15:55.560Z,845.84
2023-04-24T01:16:55.483Z,845.84
2023-04-24T01:17:55.528Z,845.84
2023-04-24T01:18:55.472Z,845.87
2023-04-24T01:19:55.455Z,845.83
2023-04-24T01:20:55.445Z,845.83
2023-04-24T01:21:55.470Z,845.84
2023-04-24T01:22:55.425Z,845.84
2023-04-24T01:23:55.412Z,845.83
2023-04-24T01:24:55.400Z,845.81
2023-04-24T01:25:55.393Z,845.74
2023-04-24T01:26:55.381Z,845.73
2023-04-24T01:27:55.384Z,845.66
2023-04-24T01:28:55.388Z,845.66
2023-04-24T01:29:55.384Z,845.65
2023-04-24T01:30:55.346Z,845.64
2023-04-24T01:31:55.328Z,845.65
2023-04-24T01:32:55.352Z,845.62
2023-04-24T01:33:55.310Z,845.61
2023-04-24T01:34:55.300Z,845.62
2023-04-24T01:35:55.298Z,845.58
2023-04-24T01:36:55.281Z,845.54
2023-04-24T01:37:55.318Z,845.52
2023-04-24T01:38:55.256Z,845.55
2023-04-24T01:39:55.249Z,845.58
2023-04-24T01:40:55.246Z,845.60
2023-04-24T01:41:55.214Z,845.60
2023-04-24T01:42:55.212Z,845.63
2023-04-24T01:43:55.203Z,845.66
2023-04-24T01:44:55.218Z,845.65
2023-04-24T01:45:55.186Z,845.69
2023-04-24T01:46:55.253Z,845.65
2023-04-24T01:47:55.188Z,845.69
2023-04-24T01:48:55.147Z,845.66
2023-04-24T01:49:55.135Z,845.65
2023-04-24T01:50:55.139Z,845.60
2023-04-24T01:51:55.121Z,845.60
2023-04-24T01:52:55.102Z,845.56
2023-04-24T01:53:55.089Z,845.54
2023-04-24T01:54:55.080Z,845.51
2023-04-24T01:55:55.081Z,845.50
2023-04-24T01:56:55.075Z,845.48
2023-04-24T01:57:55.045Z,845.50
2023-04-24T01:58:55.042Z,845.46
2023-04-24T01:59:55.022Z,845.46
2023-04-24T02:00:55.080Z,845.46
2023-04-24T02:01:55.034Z,845.46
2023-04-24T02:02:55.113Z,845.46
2023-04-24T02:03:55.069Z,845.44
2023-04-24T02:04:54.974Z,845.44
2023-04-24T02:05:54.961Z,845.48
2023-04-24T02:06:54.959Z,845.43
2023-04-24T02:07:54.953Z,845.46
2023-04-24T02:08:54.933Z,845.45
2023-04-24T02:09:54.928Z,845.44
2023-04-24T02:10:54.919Z,845.47
2023-04-24T02:11:54.904Z,845.44
2023-04-24T02:12:54.893Z,845.45
2023-04-24T02:13:54.880Z,845.39
2023-04-24T02:14:54.872Z,845.45
2023-04-24T02:15:54.861Z,845.38
2023-04-24T02:16:55.006Z,845.38
2023-04-24T02:17:54.848Z,845.41
2023-04-24T02:18:54.820Z,845.37
2023-04-24T02:19:54.819Z,845.39
2023-04-24T02:20:54.837Z,845.36
2023-04-24T02:21:54.787Z,845.36
2023-04-24T02:22:54.772Z,845.36
2023-04-24T02:23:54.769Z,845.31
2023-04-24T02:24:54.752Z,845.37
2023-04-24T02:25:54.745Z,845.29
2023-04-24T02:26:54.749Z,845.32
2023-04-24T02:27:54.720Z,845.31
2023-04-24T02:28:54.710Z,845.30
2023-04-24T02:29:54.698Z,845.27
2023-04-24T02:30:54.684Z,845.26
2023-04-24T02:31:54.743Z,845.25
2023-04-24T02:32:54.700Z,845.23
2023-04-24T02:33:54.667Z,845.22
2023-04-24T02:34:54.668Z,845.27
2023-04-24T02:35:54.631Z,845.23
2023-04-24T02:36:54.620Z,845.20
2023-04-24T02:37:54.616Z,845.25
2023-04-24T02:38:54.624Z,845.17
2023-04-24T02:39:54.587Z,845.13
2023-04-24T02:40:54.591Z,845.16
2023-04-24T02:41:54.570Z,845.09
2023-04-24T02:42:54.552Z,845.08
2023-04-24T02:43:54.548Z,845.06
2023-04-24T02:44:54.558Z,845.06
2023-04-24T02:45:54.608Z,845.04
2023-04-24T02:46:54.515Z,845.10
2023-04-24T02:47:54.553Z,845.09
2023-04-24T02:48:54.529Z,845.10
2023-04-24T02:49:54.486Z,845.04
2023-04-24T02:50:54.504Z,845.04
2023-04-24T02:51:54.477Z,845.02
2023-04-24T02:52:54.449Z,845.01
2023-04-24T02:53:54.440Z,844.96
2023-04-24T02:54:54.457Z,845.00
2023-04-24T02:55:54.427Z,844.92
2023-04-24T02:56:54.412Z,844.90
2023-04-24T02:57:54.405Z,844.89
2023-04-24T02:58:54.383Z,844.91
2023-04-24T02:59:54.387Z,844.92
2023-04-24T03:00:54.472Z,844.88
2023-04-24T03:01:54.350Z,844.86
2023-04-24T03:02:54.546Z,844.81
2023-04-24T03:03:54.553Z,844.83
2023-04-24T03:04:54.343Z,844.81
2023-04-24T03:05:54.317Z,844.83
2023-04-24T03:06:54.305Z,844.82
2023-04-24T03:07:54.299Z,844.80
2023-04-24T03:08:54.286Z,844.77
2023-04-24T03:09:54.340Z,844.78
2023-04-24T03:10:54.281Z,844.78
2023-04-24T03:11:54.252Z,844.81
2023-04-24T03:12:54.236Z,844.80
2023-04-24T03:13:54.236Z,844.81
2023-04-24T03:14:54.220Z,844.81
2023-04-24T03:15:54.298Z,844.81
2023-04-24T03:16:54.197Z,844.80
2023-04-24T03:17:56.515Z,844.81
2023-04-24T03:18:54.171Z,844.76
2023-04-24T03:19:54.157Z,844.74
2023-04-24T03:20:54.224Z,844.75
2023-04-24T03:21:54.142Z,844.78
2023-04-24T03:22:54.126Z,844.75
2023-04-24T03:23:54.119Z,844.72
2023-04-24T03:24:54.129Z,844.70
2023-04-24T03:25:54.113Z,844.65
2023-04-24T03:26:54.098Z,844.67
2023-04-24T03:27:54.079Z,844.65
2023-04-24T03:28:54.084Z,844.63
2023-04-24T03:29:54.061Z,844.60
2023-04-24T03:30:54.048Z,844.64
2023-04-24T03:31:54.107Z,844.63
2023-04-24T03:32:54.070Z,844.66
2023-04-24T03:33:54.024Z,844.66
2023-04-24T03:34:54.007Z,844.64
2023-04-24T03:35:53.993Z,844.67
2023-04-24T03:36:54.001Z,844.69
2023-04-24T03:37:53.966Z,844.73
2023-04-24T03:38:53.961Z,844.65
2023-04-24T03:39:53.959Z,844.66
2023-04-24T03:40:53.934Z,844.61
2023-04-24T03:41:53.933Z,844.61
2023-04-24T03:42:53.915Z,844.63
2023-04-24T03:43:53.910Z,844.62
2023-04-24T03:44:53.922Z,844.59
2023-04-24T03:45:53.928Z,844.58
2023-04-24T03:46:53.889Z,844.63
2023-04-24T03:47:53.934Z,844.58
2023-04-24T03:48:53.853Z,844.65
2023-04-24T03:49:53.840Z,844.59
2023-04-24T03:50:53.854Z,844.65
2023-04-24T03:51:53.817Z,844.67
2023-04-24T03:52:53.833Z,844.62
2023-04-24T03:53:53.797Z,844.58
2023-04-24T03:54:53.804Z,844.60
2023-04-24T03:55:53.774Z,844.56
2023-04-24T03:56:53.771Z,844.54
2023-04-24T03:57:53.754Z,844.55
2023-04-24T03:58:53.745Z,844.53
2023-04-24T03:59:53.742Z,844.56
2023-04-24T04:00:53.723Z,844.55
2023-04-24T04:01:53.720Z,844.61
2023-04-24T04:02:54.092Z,844.56
2023-04-24T04:03:53.871Z,844.56
2023-04-24T04:04:53.826Z,844.55
2023-04-24T04:05:53.677Z,844.64
2023-04-24T04:06:53.664Z,844.59
2023-04-24T04:07:53.651Z,844.58
2023-04-24T04:08:53.661Z,844.61
2023-04-24T04:09:53.636Z,844.63
2023-04-24T04:10:53.709Z,844.58
2023-04-24T04:11:53.605Z,844.61
2023-04-24T04:12:53.597Z,844.63
2023-04-24T04:13:53.588Z,844.65
2023-04-24T04:14:53.575Z,844.61
2023-04-24T04:15:53.654Z,844.58
2023-04-24T04:16:54.910Z,844.59
2023-04-24T04:17:53.591Z,844.56
2023-04-24T04:18:53.528Z,844.60
2023-04-24T04:19:53.515Z,844.60
2023-04-24T04:20:53.574Z,844.68
2023-04-24T04:21:53.497Z,844.71
2023-04-24T04:22:53.492Z,844.67
2023-04-24T04:23:53.478Z,844.72
2023-04-24T04:24:53.876Z,844.73
2023-04-24T04:25:53.454Z,844.76
2023-04-24T04:26:53.470Z,844.77
2023-04-24T04:27:53.457Z,844.71
2023-04-24T04:28:53.434Z,844.68
2023-04-24T04:29:53.408Z,844.67
2023-04-24T04:30:53.406Z,844.62
2023-04-24T04:31:53.481Z,844.60
2023-04-24T04:32:53.430Z,844.59
2023-04-24T04:33:53.373Z,844.58
2023-04-24T04:34:53.359Z,844.55
2023-04-24T04:35:53.347Z,844.56
2023-04-24T04:36:53.335Z,844.55
2023-04-24T04:37:53.325Z,844.52
2023-04-24T04:38:53.342Z,844.52
2023-04-24T04:39:53.303Z,844.52
2023-04-24T04:40:53.319Z,844.48
2023-04-24T04:41:53.280Z,844.49
2023-04-24T04:42:53.324Z,844.46
2023-04-24T04:43:53.260Z,844.43
2023-04-24T04:44:53.262Z,844.51
2023-04-24T04:45:53.336Z,844.48
2023-04-24T04:46:53.227Z,844.50
2023-04-24T04:47:53.275Z,844.55
2023-04-24T04:48:53.245Z,844.57
2023-04-24T04:49:53.205Z,844.56
2023-04-24T04:50:53.187Z,844.57
2023-04-24T04:51:53.180Z,844.58
2023-04-24T04:52:53.176Z,844.59
2023-04-24T04:53:53.152Z,844.70
2023-04-24T04:54:53.144Z,844.69
2023-04-24T04:55:53.143Z,844.69
2023-04-24T04:56:53.154Z,844.73
2023-04-24T04:57:53.156Z,844.74
2023-04-24T04:58:53.095Z,844.76
2023-04-24T04:59:53.084Z,844.77
2023-04-24T05:00:53.098Z,844.78
2023-04-24T05:01:53.062Z,844.82
2023-04-24T05:02:53.275Z,844.78
2023-04-24T05:03:53.341Z,844.83
2023-04-24T05:04:53.272Z,844.80
2023-04-24T05:05:53.021Z,844.83
2023-04-24T05:06:53.017Z,844.87
2023-04-24T05:07:53.003Z,844.93
2023-04-24T05:08:53.006Z,844.93
2023-04-24T05:09:52.974Z,844.95
2023-04-24T05:10:52.971Z,844.96
2023-04-24T05:11:52.977Z,844.98
2023-04-24T05:12:52.972Z,844.98
2023-04-24T05:13:52.945Z,844.98
2023-04-24T05:14:52.953Z,845.03
2023-04-24T05:15:52.921Z,845.03
2023-04-24T05:16:52.963Z,845.07
2023-04-24T05:17:52.925Z,845.14
2023-04-24T05:18:52.892Z,845.15
2023-04-24T05:19:52.879Z,845.12
2023-04-24T05:20:52.899Z,845.15
2023-04-24T05:21:52.854Z,845.15
2023-04-24T05:22:52.857Z,845.17
2023-04-24T05:23:52.838Z,845.23
2023-04-24T05:24:52.815Z,845.24
2023-04-24T05:25:52.820Z,845.33
2023-04-24T05:26:52.809Z,845.32
2023-04-24T05:27:52.805Z,845.34
2023-04-24T05:28:52.813Z,845.34
2023-04-24T05:29:52.768Z,845.39
2023-04-24T05:30:52.759Z,845.35
2023-04-24T05:31:52.821Z,845.38
2023-04-24T05:32:52.781Z,845.34
2023-04-24T05:33:52.748Z,845.35
2023-04-24T05:34:52.719Z,845.36
2023-04-24T05:35:52.698Z,845.32
2023-04-24T05:36:52.736Z,845.34
2023-04-24T05:37:52.682Z,845.35
2023-04-24T05:38:52.671Z,845.36
2023-04-24T05:39:52.678Z,845.28
2023-04-24T05:40:52.655Z,845.27
2023-04-24T05:41:52.662Z,845.29
2023-04-24T05:42:52.627Z,845.28
2023-04-24T05:43:52.638Z,845.28
2023-04-24T05:44:53.713Z,845.31
2023-04-24T05:45:52.609Z,845.31
2023-04-24T05:46:52.659Z,845.32
2023-04-24T05:47:52.643Z,845.36
2023-04-24T05:48:52.582Z,845.39
2023-04-24T05:49:52.555Z,845.34
2023-04-24T05:50:52.553Z,845.38
2023-04-24T05:51:52.547Z,845.37
2023-04-24T05:52:52.516Z,845.40
2023-04-24T05:53:52.513Z,845.44
2023-04-24T05:54:52.497Z,845.43
2023-04-24T05:55:52.489Z,845.48
2023-04-24T05:56:52.486Z,845.48
2023-04-24T05:57:52.486Z,845.47
2023-04-24T05:58:52.470Z,845.47
2023-04-24T05:59:52.458Z,845.46
2023-04-24T06:00:52.457Z,845.51
2023-04-24T06:01:52.432Z,845.49
2023-04-24T06:02:52.701Z,845.52
2023-04-24T06:03:52.544Z,845.48
2023-04-24T06:04:52.633Z,845.49
2023-04-24T06:05:52.407Z,845.53
2023-04-24T06:06:52.387Z,845.46
2023-04-24T06:07:52.357Z,845.48
2023-04-24T06:08:52.359Z,845.46
2023-04-24T06:09:52.340Z,845.46
2023-04-24T06:10:52.365Z,845.40
2023-04-24T06:11:52.314Z,845.39
2023-04-24T06:12:52.301Z,845.41
2023-04-24T06:13:52.297Z,845.42
2023-04-24T06:14:52.290Z,845.41
2023-04-24T06:15:52.279Z,845.38
2023-04-24T06:16:52.452Z,845.37
2023-04-24T06:17:52.291Z,845.28
2023-04-24T06:18:52.243Z,845.30
2023-04-24T06:19:52.244Z,845.27
2023-04-24T06:20:52.232Z,845.22
2023-04-24T06:21:52.213Z,845.22
2023-04-24T06:22:52.204Z,845.29
2023-04-24T06:23:52.184Z,845.25
2023-04-24T06:24:52.172Z,845.22
2023-04-24T06:25:52.171Z,845.26
2023-04-24T06:26:52.174Z,845.25
2023-04-24T06:27:52.144Z,845.22
2023-04-24T06:28:52.129Z,845.22
2023-04-24T06:29:52.127Z,845.22
2023-04-24T06:30:52.117Z,845.20
2023-04-24T06:31:52.153Z,845.22
2023-04-24T06:32:52.285Z,845.20
2023-04-24T06:33:52.077Z,845.25
2023-04-24T06:34:52.064Z,845.20
2023-04-24T06:35:52.060Z,845.22
2023-04-24T06:36:52.060Z,845.20
2023-04-24T06:37:52.038Z,845.20
2023-04-24T06:38:52.039Z,845.18
2023-04-24T06:39:52.017Z,845.16
2023-04-24T06:40:52.026Z,845.12
2023-04-24T06:41:51.994Z,845.13
2023-04-24T06:42:51.986Z,845.14
2023-04-24T06:43:51.973Z,845.10
2023-04-24T06:44:52.004Z,845.11
2023-04-24T06:45:51.967Z,845.15
2023-04-24T06:46:51.955Z,845.15
2023-04-24T06:47:51.965Z,845.14
2023-04-24T06:48:51.946Z,845.15
2023-04-24T06:49:51.908Z,845.16
2023-04-24T06:50:51.899Z,845.11
2023-04-24T06:51:51.882Z,845.15
2023-04-24T06:52:51.882Z,845.16
2023-04-24T06:53:51.866Z,845.19
2023-04-24T06:54:51.858Z,845.16
2023-04-24T06:55:51.842Z,845.20
2023-04-24T06:56:51.847Z,845.16
2023-04-24T06:57:51.816Z,845.13
2023-04-24T06:58:51.812Z,845.14
2023-04-24T06:59:51.804Z,845.20
2023-04-24T07:00:51.813Z,845.18
2023-04-24T07:01:53.795Z,845.15
2023-04-24T07:02:51.933Z,845.16
2023-04-24T07:03:51.918Z,845.13
2023-04-24T07:04:51.776Z,845.23
2023-04-24T07:05:51.748Z,845.21
2023-04-24T07:06:51.734Z,845.26
2023-04-24T07:07:51.718Z,845.30
2023-04-24T07:08:51.772Z,845.26
2023-04-24T07:09:51.687Z,845.29
2023-04-24T07:10:51.686Z,845.34
2023-04-24T07:11:51.697Z,845.35
2023-04-24T07:12:51.656Z,845.37
2023-04-24T07:13:51.656Z,845.37
2023-04-24T07:14:51.649Z,845.43
2023-04-24T07:15:51.884Z,845.46
2023-04-24T07:16:51.619Z,845.45
2023-04-24T07:17:51.627Z,845.50
2023-04-24T07:18:51.610Z,845.58
2023-04-24T07:19:51.593Z,845.55
2023-04-24T07:20:51.602Z,845.54
2023-04-24T07:21:51.576Z,845.49
2023-04-24T07:22:51.555Z,845.53
2023-04-24T07:23:51.543Z,845.51
2023-04-24T07:24:51.592Z,845.48
2023-04-24T07:25:51.534Z,845.50
2023-04-24T07:26:51.536Z,845.46
2023-04-24T07:27:51.506Z,845.50
2023-04-24T07:28:51.489Z,845.46
2023-04-24T07:29:51.474Z,845.47
2023-04-24T07:30:51.474Z,845.45
2023-04-24T07:31:51.546Z,845.46
2023-04-24T07:32:51.486Z,845.47
2023-04-24T07:33:51.468Z,845.47
2023-04-24T07:34:51.426Z,845.48
2023-04-24T07:35:51.411Z,845.49
2023-04-24T07:36:51.435Z,845.50
2023-04-24T07:37:51.400Z,845.46
2023-04-24T07:38:51.405Z,845.45
2023-04-24T07:39:51.379Z,845.46
2023-04-24T07:40:51.396Z,845.43
2023-04-24T07:41:51.348Z,845.50
2023-04-24T07:42:51.333Z,845.52
2023-04-24T07:43:51.382Z,845.50
2023-04-24T07:44:51.326Z,845.47
2023-04-24T07:45:51.351Z,845.54
2023-04-24T07:46:51.344Z,845.56
2023-04-24T07:47:51.305Z,845.61
2023-04-24T07:49:01.861Z,845.59
2023-04-24T07:49:52.261Z,845.59
2023-04-24T07:50:51.276Z,845.58
2023-04-24T07:51:51.248Z,845.53
2023-04-24T07:52:51.254Z,845.55
2023-04-24T07:53:51.232Z,845.54
2023-04-24T07:54:51.216Z,845.62
2023-04-24T07:55:51.250Z,845.61
2023-04-24T07:56:51.187Z,845.63
2023-04-24T07:57:51.178Z,845.63
2023-04-24T07:58:51.169Z,845.64
2023-04-24T07:59:51.150Z,845.69
2023-04-24T08:00:51.148Z,845.70
2023-04-24T08:01:51.140Z,845.76
2023-04-24T08:02:51.362Z,845.68
2023-04-24T08:03:51.289Z,845.76
2023-04-24T08:04:51.221Z,845.75
2023-04-24T08:05:51.146Z,845.70
2023-04-24T08:06:51.121Z,845.74
2023-04-24T08:07:51.069Z,845.76
2023-04-24T08:08:51.092Z,845.77
2023-04-24T08:09:51.059Z,845.80
2023-04-24T08:10:51.029Z,845.80
2023-04-24T08:11:51.049Z,845.76
2023-04-24T08:12:51.020Z,845.84
2023-04-24T08:13:51.007Z,845.81
2023-04-24T08:14:50.993Z,845.83
2023-04-24T08:15:50.999Z,845.82
2023-04-24T08:16:50.964Z,845.85
2023-04-24T08:17:50.987Z,845.85
2023-04-24T08:18:50.961Z,845.90
2023-04-24T08:19:50.934Z,845.95
2023-04-24T08:20:50.920Z,845.96
2023-04-24T08:21:50.966Z,845.97
2023-04-24T08:22:50.936Z,846.00
2023-04-24T08:23:50.900Z,845.96
2023-04-24T08:24:50.904Z,845.98
2023-04-24T08:25:50.869Z,846.00
2023-04-24T08:26:50.862Z,845.99
2023-04-24T08:27:50.848Z,846.01
2023-04-24T08:28:50.838Z,846.09
2023-04-24T08:29:50.840Z,846.07
2023-04-24T08:30:50.819Z,846.05
2023-04-24T08:31:50.937Z,846.05
2023-04-24T08:32:50.828Z,846.12
2023-04-24T08:33:50.785Z,846.04
2023-04-24T08:34:50.769Z,846.08
2023-04-24T08:35:50.761Z,846.06
2023-04-24T08:36:50.766Z,846.08
2023-04-24T08:37:50.761Z,846.06
2023-04-24T08:38:50.723Z,846.13
2023-04-24T08:39:50.715Z,846.09
2023-04-24T08:40:50.725Z,846.10
2023-04-24T08:41:50.700Z,846.11
2023-04-24T08:42:50.709Z,846.14
2023-04-24T08:43:50.676Z,846.14
2023-04-24T08:44:50.676Z,846.12
2023-04-24T08:45:50.723Z,846.08
2023-04-24T08:46:50.715Z,846.17
2023-04-24T08:47:50.638Z,846.17
2023-04-24T08:48:50.999Z,846.18
2023-04-24T08:49:50.612Z,846.18
2023-04-24T08:50:50.600Z,846.24
2023-04-24T08:51:50.601Z,846.21
2023-04-24T08:52:50.580Z,846.20
2023-04-24T08:53:50.592Z,846.19
2023-04-24T08:54:50.562Z,846.24
2023-04-24T08:55:50.551Z,846.23
2023-04-24T08:56:50.564Z,846.24
2023-04-24T08:57:50.541Z,846.22
2023-04-24T08:58:50.518Z,846.24
2023-04-24T08:59:50.510Z,846.22
2023-04-24T09:00:50.491Z,846.23
2023-04-24T09:01:50.540Z,846.26
2023-04-24T09:02:50.620Z,846.27
2023-04-24T09:03:50.649Z,846.31
2023-04-24T09:04:50.545Z,846.29
2023-04-24T09:05:50.437Z,846.32
2023-04-24T09:06:50.435Z,846.34
2023-04-24T09:07:50.423Z,846.27
2023-04-24T09:08:50.421Z,846.27
2023-04-24T09:09:50.407Z,846.26
2023-04-24T09:10:51.388Z,846.29
2023-04-24T09:11:50.382Z,846.33
2023-04-24T09:12:50.384Z,846.25
2023-04-24T09:13:50.351Z,846.19
2023-04-24T09:14:50.401Z,846.24
2023-04-24T09:15:50.362Z,846.28
2023-04-24T09:16:50.348Z,846.27
2023-04-24T09:17:50.332Z,846.22
2023-04-24T09:18:50.314Z,846.23
2023-04-24T09:19:50.312Z,846.22
2023-04-24T09:20:50.280Z,846.21
2023-04-24T09:21:50.278Z,846.22
2023-04-24T09:22:50.254Z,846.21
2023-04-24T09:23:50.247Z,846.21
2023-04-24T09:24:50.236Z,846.25
2023-04-24T09:25:50.230Z,846.25
2023-04-24T09:26:50.225Z,846.28
2023-04-24T09:27:50.205Z,846.23
2023-04-24T09:28:50.216Z,846.18
2023-04-24T09:29:50.205Z,846.24
2023-04-24T09:30:50.170Z,846.21
2023-04-24T09:31:50.211Z,846.17
2023-04-24T09:32:50.284Z,846.23
2023-04-24T09:33:50.152Z,846.20
2023-04-24T09:34:50.129Z,846.20
2023-04-24T09:35:50.142Z,846.20
2023-04-24T09:36:50.104Z,846.21
2023-04-24T09:37:50.116Z,846.24
2023-04-24T09:38:50.080Z,846.25
2023-04-24T09:39:50.097Z,846.23
2023-04-24T09:40:50.073Z,846.22
2023-04-24T09:41:50.064Z,846.24
2023-04-24T09:42:50.036Z,846.24
2023-04-24T09:43:50.026Z,846.24
2023-04-24T09:44:50.047Z,846.24
2023-04-24T09:45:50.077Z,846.25
2023-04-24T09:46:49.998Z,846.23
2023-04-24T09:47:50.011Z,846.23
2023-04-24T09:48:49.978Z,846.24
2023-04-24T09:49:49.965Z,846.25
2023-04-24T09:50:49.972Z,846.25
2023-04-24T09:51:49.947Z,846.21
2023-04-24T09:52:49.925Z,846.21
2023-04-24T09:53:49.931Z,846.19
2023-04-24T09:54:49.912Z,846.18
2023-04-24T09:55:49.908Z,846.20
2023-04-24T09:56:49.893Z,846.21
2023-04-24T09:57:49.881Z,846.17
2023-04-24T09:58:49.865Z,846.22
2023-04-24T09:59:49.861Z,846.21
2023-04-24T10:00:49.870Z,846.20
2023-04-24T10:01:50.008Z,846.21
2023-04-24T10:02:49.910Z,846.20
2023-04-24T10:03:49.818Z,846.26
2023-04-24T10:04:49.846Z,846.28
2023-04-24T10:05:49.795Z,846.19
2023-04-24T10:06:49.810Z,846.12
2023-04-24T10:07:50.223Z,846.16
2023-04-24T10:08:49.756Z,846.17
2023-04-24T10:09:49.774Z,846.25
2023-04-24T10:10:49.739Z,846.21
2023-04-24T10:11:49.736Z,846.18
2023-04-24T10:12:49.720Z,846.20
2023-04-24T10:13:49.717Z,846.23
2023-04-24T10:14:49.700Z,846.16
2023-04-24T10:15:49.710Z,846.15
2023-04-24T10:16:49.699Z,846.14
2023-04-24T10:17:49.703Z,846.22
2023-04-24T10:18:49.656Z,846.19
2023-04-24T10:19:49.658Z,846.15
2023-04-24T10:20:49.627Z,846.18
2023-04-24T10:21:49.647Z,846.11
2023-04-24T10:22:49.612Z,846.15
2023-04-24T10:23:49.592Z,846.16
2023-04-24T10:24:49.593Z,846.13
2023-04-24T10:25:49.572Z,846.14
2023-04-24T10:26:49.679Z,846.16
2023-04-24T10:27:49.559Z,846.16
2023-04-24T10:28:49.550Z,846.14
2023-04-24T10:29:49.538Z,846.13
2023-04-24T10:30:49.537Z,846.19
2023-04-24T10:31:49.651Z,846.21
2023-04-24T10:32:49.566Z,846.18
2023-04-24T10:33:49.488Z,846.25
2023-04-24T10:34:49.490Z,846.26
2023-04-24T10:35:49.475Z,846.22
2023-04-24T10:36:49.480Z,846.20
2023-04-24T10:37:49.441Z,846.20
2023-04-24T10:38:49.436Z,846.17
2023-04-24T10:39:49.427Z,846.28
2023-04-24T10:40:49.411Z,846.24
2023-04-24T10:41:49.411Z,846.29
2023-04-24T10:42:49.393Z,846.28
2023-04-24T10:43:49.373Z,846.26
2023-04-24T10:44:49.365Z,846.24
2023-04-24T10:45:49.373Z,846.27
2023-04-24T10:46:49.387Z,846.21
2023-04-24T10:47:49.441Z,846.19
2023-04-24T10:48:49.346Z,846.28
2023-04-24T10:49:49.319Z,846.31
2023-04-24T10:50:49.335Z,846.29
2023-04-24T10:51:49.350Z,846.32
2023-04-24T10:52:49.283Z,846.33
2023-04-24T10:53:49.275Z,846.38
2023-04-24T10:54:49.270Z,846.33
2023-04-24T10:55:49.256Z,846.36
2023-04-24T10:56:49.236Z,846.37
2023-04-24T10:57:49.240Z,846.38
2023-04-24T10:58:49.226Z,846.42
2023-04-24T10:59:49.226Z,846.47
2023-04-24T11:00:49.286Z,846.47
2023-04-24T11:01:49.187Z,846.38
2023-04-24T11:02:49.583Z,846.45
2023-04-24T11:03:49.512Z,846.46
2023-04-24T11:04:49.338Z,846.47
2023-04-24T11:05:49.157Z,846.44
2023-04-24T11:06:49.138Z,846.47
2023-04-24T11:07:49.137Z,846.45
2023-04-24T11:08:49.126Z,846.47
2023-04-24T11:09:49.113Z,846.46
2023-04-24T11:10:49.094Z,846.54
2023-04-24T11:11:49.088Z,846.62
2023-04-24T11:12:49.068Z,846.58
2023-04-24T11:13:49.058Z,846.60
2023-04-24T11:14:49.046Z,846.59
2023-04-24T11:15:49.053Z,846.59
2023-04-24T11:16:49.065Z,846.58
2023-04-24T11:17:49.064Z,846.59
2023-04-24T11:18:49.002Z,846.63
2023-04-24T11:19:48.988Z,846.59
2023-04-24T11:20:49.024Z,846.61
2023-04-24T11:21:48.988Z,846.62
2023-04-24T11:22:48.965Z,846.63
2023-04-24T11:23:48.953Z,846.63
2023-04-24T11:24:48.966Z,846.59
2023-04-24T11:25:48.928Z,846.60
2023-04-24T11:26:48.915Z,846.58
2023-04-24T11:27:48.908Z,846.54
2023-04-24T11:28:48.908Z,846.55
2023-04-24T11:29:48.881Z,846.56
2023-04-24T11:30:48.884Z,846.56
2023-04-24T11:31:48.870Z,846.56
2023-04-24T11:32:48.884Z,846.56
2023-04-24T11:33:48.834Z,846.54
2023-04-24T11:34:48.828Z,846.61
2023-04-24T11:35:48.821Z,846.54
2023-04-24T11:36:48.846Z,846.62
2023-04-24T11:38:08.141Z,846.53
2023-04-24T11:38:49.782Z,846.54
2023-04-24T11:39:48.805Z,846.58
2023-04-24T11:40:48.770Z,846.55
2023-04-24T11:41:48.748Z,846.55
2023-04-24T11:42:48.741Z,846.53
2023-04-24T11:43:48.729Z,846.53
2023-04-24T11:44:48.767Z,846.54
2023-04-24T11:45:48.743Z,846.56
2023-04-24T11:46:48.702Z,846.52
2023-04-24T11:47:48.730Z,846.60
2023-04-24T11:48:48.680Z,846.57
2023-04-24T11:49:48.661Z,846.57
2023-04-24T11:50:48.656Z,846.57
2023-04-24T11:51:53.559Z,846.53
2023-04-24T11:52:49.677Z,846.54
2023-04-24T11:53:51.873Z,846.53
2023-04-24T11:54:49.643Z,846.51
2023-04-24T11:55:48.607Z,846.54
2023-04-24T11:56:48.616Z,846.54
2023-04-24T11:57:48.582Z,846.57
2023-04-24T11:58:48.571Z,846.62
2023-04-24T11:59:48.555Z,846.55
2023-04-24T12:00:48.550Z,846.57
2023-04-24T12:01:48.539Z,846.54
2023-04-24T12:02:48.722Z,846.56
2023-04-24T12:03:48.665Z,846.66
2023-04-24T12:04:48.974Z,846.73
2023-04-24T12:05:48.650Z,846.67
2023-04-24T12:06:48.485Z,846.69
2023-04-24T12:07:48.473Z,846.67
2023-04-24T12:08:48.491Z,846.70
2023-04-24T12:09:49.294Z,846.68
2023-04-24T12:10:48.449Z,846.66
2023-04-24T12:11:48.441Z,846.68
2023-04-24T12:12:48.416Z,846.68
2023-04-24T12:13:48.405Z,846.67
2023-04-24T12:14:48.400Z,846.74
2023-04-24T12:15:48.418Z,846.68
2023-04-24T12:16:48.417Z,846.72
2023-04-24T12:17:48.387Z,846.69
2023-04-24T12:18:48.363Z,846.67
2023-04-24T12:19:48.350Z,846.65
2023-04-24T12:20:48.335Z,846.62
2023-04-24T12:21:48.329Z,846.67
2023-04-24T12:22:48.356Z,846.62
2023-04-24T12:23:48.298Z,846.66
2023-04-24T12:24:48.313Z,846.64
2023-04-24T12:25:48.283Z,846.52
2023-04-24T12:26:48.270Z,846.57
2023-04-24T12:27:48.296Z,846.54
2023-04-24T12:28:48.263Z,846.60